Drybranch, West Virginia
Current Conditions -  °F | °C
As of 4:54 PM on Thursday 27 Nov 2014 (Local Time) from KCRW Reporting Station
Light Snow Light Snow  
Wind Chill: 26°   Ceiling: 3500
Heat Index: 32°   Visibility: 4mi
Dew Point: 24°   Wind: 7mph
Humidity: 73%   Direction: 270°W
Pressure: 30.25"   Gusts: 16mph
Location:  38.18°N, 81.47°W
Report Text: KCRW 272154Z 27006G14KT 4SM -SN SCT023 OVC035 00/M04 A3025 RMK AO2 SLP252 P0000 T00001044
Loading
Personal Weather Stations






























Interactive Weather Map New forecast layout! Learn more

10-Day Weather Forecast

Advertisements
Track Severe Weather on mobile